Time;durP1;ratioP1;P1;durP2;ratioP2;P2;SDS_P1;SDS_P2;PMS_P1;PMS_P2;Temp;Humidity;BMP_temperature;BMP_pressure;BME280_temperature;BME280_humidity;BME280_pressure;Samples;Min_cycle;Max_cycle;Signal;HPM_P1;HPM_P2
2024/01/24 00:01:13;;;;;;;14.32;7.22;;;;;;;;;;6228200;28;20046;-68
2024/01/24 00:04:14;;;;;;;17.27;7.80;;;;;;;;;;6226252;28;20412;-68
2024/01/24 00:07:15;;;;;;;16.65;7.20;;;;;;;;;;6228674;28;20049;-68
2024/01/24 00:10:15;;;;;;;13.82;6.30;;;;;;;;;;6233336;28;20550;-68
2024/01/24 00:13:16;;;;;;;15.20;6.40;;;;;;;;;;6237883;28;20041;-68
2024/01/24 00:16:17;;;;;;;12.88;6.35;;;;;;;;;;6239812;28;20060;-67
2024/01/24 00:19:20;;;;;;;13.38;5.95;;;;;;;;;;6239407;28;20098;-67
2024/01/24 00:22:20;;;;;;;12.75;5.97;;;;;;;;;;6240700;28;20140;-68
2024/01/24 00:25:22;;;;;;;14.55;5.93;;;;;;;;;;6237880;28;20501;-68
2024/01/24 00:28:26;;;;;;;14.77;6.80;;;;;;;;;;6238747;28;20420;-68
2024/01/24 00:31:27;;;;;;;14.70;7.28;;;;;;;;;;6239527;28;20080;-68
2024/01/24 00:34:28;;;;;;;15.60;6.50;;;;;;;;;;6238327;28;20045;-66
2024/01/24 00:37:28;;;;;;;12.48;5.50;;;;;;;;;;6238884;28;20408;-66
2024/01/24 00:40:29;;;;;;;12.57;5.55;;;;;;;;;;6239119;28;20045;-66
2024/01/24 00:43:30;;;;;;;14.45;5.90;;;;;;;;;;6237694;28;20037;-66
2024/01/24 00:46:30;;;;;;;14.60;5.10;;;;;;;;;;6238633;28;20041;-67
2024/01/24 00:49:32;;;;;;;10.10;5.20;;;;;;;;;;6238338;28;20119;-66
2024/01/24 00:52:33;;;;;;;14.60;5.55;;;;;;;;;;6240289;28;20045;-66
2024/01/24 00:55:34;;;;;;;12.98;5.38;;;;;;;;;;6238589;28;20045;-67
2024/01/24 00:58:34;;;;;;;12.38;5.32;;;;;;;;;;6237603;28;20511;-65
2024/01/24 01:01:35;;;;;;;11.13;5.22;;;;;;;;;;6239259;28;20041;-65
2024/01/24 01:04:36;;;;;;;12.20;5.65;;;;;;;;;;6240135;28;20045;-66
2024/01/24 01:07:36;;;;;;;11.13;4.85;;;;;;;;;;6238090;28;20132;-66
2024/01/24 01:10:37;;;;;;;10.35;5.10;;;;;;;;;;6239011;28;20033;-65
2024/01/24 01:13:38;;;;;;;11.43;4.80;;;;;;;;;;6239913;28;20476;-65
2024/01/24 01:16:38;;;;;;;8.18;4.35;;;;;;;;;;6239676;28;20061;-66
2024/01/24 01:19:39;;;;;;;10.38;4.93;;;;;;;;;;6236550;28;20048;-66
2024/01/24 01:22:40;;;;;;;11.05;3.83;;;;;;;;;;6238450;28;20042;-66
2024/01/24 01:25:41;;;;;;;10.35;4.03;;;;;;;;;;6239561;28;20386;-65
2024/01/24 01:28:41;;;;;;;10.70;4.28;;;;;;;;;;6236558;28;20045;-66
2024/01/24 01:31:42;;;;;;;10.40;4.30;;;;;;;;;;6237805;28;20481;-66
2024/01/24 01:34:42;;;;;;;9.82;3.90;;;;;;;;;;6239467;28;20065;-65
2024/01/24 01:37:43;;;;;;;9.68;4.05;;;;;;;;;;6238934;28;20041;-66
2024/01/24 01:40:44;;;;;;;10.13;4.38;;;;;;;;;;6238298;28;20049;-65
2024/01/24 01:43:45;;;;;;;9.65;3.85;;;;;;;;;;6239289;28;20443;-65
2024/01/24 01:46:45;;;;;;;9.27;3.63;;;;;;;;;;6237367;28;20065;-66
2024/01/24 01:49:46;;;;;;;6.38;3.30;;;;;;;;;;6238253;28;20690;-66
2024/01/24 01:52:47;;;;;;;10.40;3.30;;;;;;;;;;6237629;28;20451;-66
2024/01/24 01:55:48;;;;;;;10.38;3.47;;;;;;;;;;6241321;28;20477;-66
2024/01/24 01:58:49;;;;;;;7.28;3.25;;;;;;;;;;6242577;28;21096;-66
2024/01/24 02:01:53;;;;;;;8.10;3.40;;;;;;;;;;6241827;28;20049;-66
2024/01/24 02:04:54;;;;;;;6.80;3.25;;;;;;;;;;6242619;28;20101;-66
2024/01/24 02:07:55;;;;;;;8.55;3.33;;;;;;;;;;6243303;28;20389;-66
2024/01/24 02:10:55;;;;;;;7.95;3.25;;;;;;;;;;6243340;28;20072;-66
2024/01/24 02:14:00;;;;;;;8.73;3.40;;;;;;;;;;6243759;28;20111;-66
2024/01/24 02:17:01;;;;;;;9.52;3.78;;;;;;;;;;6243235;28;20395;-66
2024/01/24 02:20:03;;;;;;;7.10;3.10;;;;;;;;;;6242106;28;20053;-66
2024/01/24 02:23:04;;;;;;;;;;;;;;;;;;6244277;28;20042;-66
2024/01/24 02:26:04;;;;;;;8.20;3.58;;;;;;;;;;6243252;28;19928;-65
2024/01/24 02:29:06;;;;;;;8.40;3.22;;;;;;;;;;6241982;28;20048;-66
2024/01/24 02:32:06;;;;;;;7.90;3.50;;;;;;;;;;6242125;28;20053;-66
2024/01/24 02:35:07;;;;;;;8.63;3.47;;;;;;;;;;6242092;28;20042;-67
2024/01/24 02:38:08;;;;;;;7.00;2.88;;;;;;;;;;6242246;28;20056;-67
2024/01/24 02:41:08;;;;;;;7.78;3.33;;;;;;;;;;6241293;28;20428;-66
2024/01/24 02:44:09;;;;;;;8.30;3.30;;;;;;;;;;6242787;28;20053;-66
2024/01/24 02:47:10;;;;;;;7.82;2.70;;;;;;;;;;6239196;28;20064;-66
2024/01/24 02:50:12;;;;;;;8.23;3.00;;;;;;;;;;6240626;28;20052;-66
2024/01/24 02:53:12;;;;;;;6.35;2.40;;;;;;;;;;6244819;28;20046;-66
2024/01/24 02:56:13;;;;;;;8.75;2.60;;;;;;;;;;6243285;28;20076;-66
2024/01/24 02:59:13;;;;;;;7.68;2.55;;;;;;;;;;6241292;28;20409;-65
2024/01/24 03:02:14;;;;;;;6.90;2.70;;;;;;;;;;6242848;28;20037;-66
2024/01/24 03:05:15;;;;;;;7.18;2.53;;;;;;;;;;6243233;28;20045;-66
2024/01/24 03:08:16;;;;;;;6.88;2.88;;;;;;;;;;6240126;28;20167;-67
2024/01/24 03:11:18;;;;;;;11.02;2.65;;;;;;;;;;6240516;28;20413;-66
2024/01/24 03:14:21;;;;;;;7.38;2.97;;;;;;;;;;6240851;28;20076;-65
2024/01/24 03:17:21;;;;;;;6.85;2.80;;;;;;;;;;6241128;28;20041;-66
2024/01/24 03:20:22;;;;;;;6.05;2.63;;;;;;;;;;6241452;28;20441;-66
2024/01/24 03:23:24;;;;;;;7.18;3.40;;;;;;;;;;6242342;28;20488;-66
2024/01/24 03:26:25;;;;;;;;;;;;;;;;;;6242806;28;20061;-66
2024/01/24 03:29:26;;;;;;;5.90;2.53;;;;;;;;;;6240424;28;20399;-66
2024/01/24 03:32:27;;;;;;;5.32;2.75;;;;;;;;;;6241242;28;20084;-66
2024/01/24 03:35:27;;;;;;;11.27;3.45;;;;;;;;;;6240885;28;20057;-66
2024/01/24 03:38:29;;;;;;;7.43;2.88;;;;;;;;;;6241003;28;20041;-68
2024/01/24 03:41:30;;;;;;;6.63;2.80;;;;;;;;;;6240978;28;20100;-67
2024/01/24 03:44:31;;;;;;;6.22;2.80;;;;;;;;;;6241972;28;20485;-67
2024/01/24 03:47:31;;;;;;;7.65;3.30;;;;;;;;;;6240239;28;20054;-68
2024/01/24 03:50:33;;;;;;;8.55;3.45;;;;;;;;;;6238456;28;20045;-67
2024/01/24 03:53:33;;;;;;;8.10;2.88;;;;;;;;;;6238631;28;20049;-68
2024/01/24 03:56:34;;;;;;;5.40;2.13;;;;;;;;;;6239854;28;20045;-68
2024/01/24 03:59:37;;;;;;;5.43;2.65;;;;;;;;;;6238158;28;20412;-68
2024/01/24 04:02:40;;;;;;;9.13;2.75;;;;;;;;;;6240075;28;20045;-67
2024/01/24 04:05:40;;;;;;;;;;;;;;;;;;6242040;28;20053;-67
2024/01/24 04:08:44;;;;;;;5.55;2.50;;;;;;;;;;6241626;28;20019;-68
2024/01/24 04:11:44;;;;;;;7.38;2.75;;;;;;;;;;6239258;28;22021;-68
2024/01/24 04:14:46;;;;;;;8.60;2.88;;;;;;;;;;6240860;28;20045;-67
2024/01/24 04:17:46;;;;;;;6.85;3.30;;;;;;;;;;6240043;28;20095;-68
2024/01/24 04:20:47;;;;;;;8.30;3.58;;;;;;;;;;6237740;28;20464;-67
2024/01/24 04:23:47;;;;;;;6.90;3.20;;;;;;;;;;6240210;28;20512;-67
2024/01/24 04:26:48;;;;;;;7.13;3.15;;;;;;;;;;6241219;28;20045;-68
2024/01/24 04:29:49;;;;;;;10.75;3.60;;;;;;;;;;6240271;28;20045;-67
2024/01/24 04:32:49;;;;;;;12.00;3.50;;;;;;;;;;6239122;28;20042;-67
2024/01/24 04:35:50;;;;;;;8.88;4.10;;;;;;;;;;6238457;28;20505;-68
2024/01/24 04:38:51;;;;;;;8.02;3.35;;;;;;;;;;6235374;28;20049;-67
2024/01/24 04:41:51;;;;;;;12.40;4.00;;;;;;;;;;6238721;28;20420;-68
2024/01/24 04:44:52;;;;;;;10.50;5.25;;;;;;;;;;6235620;28;20066;-68
2024/01/24 04:47:53;;;;;;;23.00;9.80;;;;;;;;;;6241018;28;20480;-67
2024/01/24 04:50:54;;;;;;;11.85;6.28;;;;;;;;;;6237980;28;20516;-67
2024/01/24 04:53:54;;;;;;;10.85;4.18;;;;;;;;;;6238116;28;20119;-67
2024/01/24 04:56:55;;;;;;;11.40;4.60;;;;;;;;;;6236781;28;20049;-67
2024/01/24 04:59:55;;;;;;;7.82;3.50;;;;;;;;;;6236266;28;20773;-68
2024/01/24 05:02:56;;;;;;;7.60;3.03;;;;;;;;;;6239893;28;20050;-68
2024/01/24 05:05:57;;;;;;;11.85;3.53;;;;;;;;;;6238384;28;20152;-68
2024/01/24 05:08:58;;;;;;;12.57;4.40;;;;;;;;;;6236086;28;20468;-68
2024/01/24 05:11:59;;;;;;;6.38;2.58;;;;;;;;;;6237085;28;20050;-68
2024/01/24 05:14:59;;;;;;;7.65;2.33;;;;;;;;;;6236644;28;20382;-68
2024/01/24 05:18:00;;;;;;;9.02;2.90;;;;;;;;;;6235913;28;20049;-69
2024/01/24 05:21:02;;;;;;;7.72;2.05;;;;;;;;;;6234958;28;20048;-68
2024/01/24 05:24:03;;;;;;;6.30;3.17;;;;;;;;;;6236821;28;20053;-68
2024/01/24 05:27:04;;;;;;;8.68;2.55;;;;;;;;;;6239626;28;20053;-68
2024/01/24 05:30:05;;;;;;;7.97;2.85;;;;;;;;;;6237741;28;20730;-68
2024/01/24 05:33:06;;;;;;;3.95;1.90;;;;;;;;;;6239343;28;20102;-68
2024/01/24 05:36:06;;;;;;;6.70;2.13;;;;;;;;;;6239726;28;20053;-67
2024/01/24 05:39:07;;;;;;;5.70;1.88;;;;;;;;;;6235774;28;20044;-68
2024/01/24 05:42:08;;;;;;;6.03;2.25;;;;;;;;;;6238711;28;20099;-66
2024/01/24 05:45:10;;;;;;;6.65;2.13;;;;;;;;;;6239644;28;20053;-66
2024/01/24 05:48:10;;;;;;;9.57;2.67;;;;;;;;;;6237992;28;20053;-66
2024/01/24 05:51:11;;;;;;;8.10;2.58;;;;;;;;;;6238312;28;20152;-65
2024/01/24 05:54:12;;;;;;;6.30;2.55;;;;;;;;;;6237907;28;20069;-65
2024/01/24 05:57:13;;;;;;;5.60;1.90;;;;;;;;;;6238490;28;20053;-66
2024/01/24 06:00:14;;;;;;;8.23;2.50;;;;;;;;;;6238020;28;20052;-67
2024/01/24 06:03:14;;;;;;;12.07;2.70;;;;;;;;;;6238610;28;20041;-67
2024/01/24 06:06:15;;;;;;;6.95;2.15;;;;;;;;;;6239240;28;20057;-66
2024/01/24 06:09:20;;;;;;;8.27;2.00;;;;;;;;;;6236404;28;20046;-68
2024/01/24 06:12:22;;;;;;;6.03;1.52;;;;;;;;;;6237805;28;20485;-67
2024/01/24 06:15:23;;;;;;;;;;;;;;;;;;6238702;28;20049;-66
2024/01/24 06:18:23;;;;;;;6.47;2.25;;;;;;;;;;6238030;28;19921;-67
2024/01/24 06:21:24;;;;;;;4.05;1.45;;;;;;;;;;6238284;28;20064;-66
2024/01/24 06:24:24;;;;;;;7.25;2.38;;;;;;;;;;6238970;28;20041;-66
2024/01/24 06:27:25;;;;;;;6.65;2.58;;;;;;;;;;6238439;28;20536;-66
2024/01/24 06:30:26;;;;;;;5.70;1.90;;;;;;;;;;6234388;28;20076;-67
2024/01/24 06:33:27;;;;;;;5.97;1.85;;;;;;;;;;6237321;28;20053;-66
2024/01/24 06:36:28;;;;;;;3.90;1.50;;;;;;;;;;6247849;28;20041;-67
2024/01/24 06:39:29;;;;;;;11.88;3.70;;;;;;;;;;6245905;28;20045;-66
2024/01/24 06:42:30;;;;;;;7.03;2.65;;;;;;;;;;6244366;28;20423;-67
2024/01/24 06:45:31;;;;;;;8.23;3.10;;;;;;;;;;6250165;28;20053;-66
2024/01/24 06:48:32;;;;;;;5.57;2.45;;;;;;;;;;6250602;28;20488;-67
2024/01/24 06:51:33;;;;;;;5.78;2.00;;;;;;;;;;6247996;28;20103;-66
2024/01/24 06:54:35;;;;;;;5.55;2.15;;;;;;;;;;6244510;28;20034;-67
2024/01/24 06:57:36;;;;;;;5.57;2.20;;;;;;;;;;6248439;28;20049;-66
2024/01/24 07:00:36;;;;;;;6.22;2.58;;;;;;;;;;6241230;28;20050;-67
2024/01/24 07:03:37;;;;;;;5.80;2.58;;;;;;;;;;6251325;28;20119;-67
2024/01/24 07:06:39;;;;;;;5.60;2.83;;;;;;;;;;6263460;28;20041;-67
2024/01/24 07:09:40;;;;;;;7.68;2.63;;;;;;;;;;6241002;28;20049;-67
2024/01/24 07:12:45;;;;;;;6.82;2.83;;;;;;;;;;6242324;28;20052;-66
2024/01/24 07:15:46;;;;;;;5.63;2.45;;;;;;;;;;6240070;28;20048;-67
2024/01/24 07:18:46;;;;;;;5.75;2.80;;;;;;;;;;6240786;28;20049;-67
2024/01/24 07:21:48;;;;;;;7.03;2.67;;;;;;;;;;6240556;28;20061;-66
2024/01/24 07:24:49;;;;;;;5.13;2.42;;;;;;;;;;6242859;28;20045;-66
2024/01/24 07:27:50;;;;;;;5.40;2.50;;;;;;;;;;6242098;28;20511;-67
2024/01/24 07:30:51;;;;;;;5.35;2.47;;;;;;;;;;6240283;28;20049;-66
2024/01/24 07:33:51;;;;;;;5.63;2.70;;;;;;;;;;6240952;28;20404;-67
2024/01/24 07:36:52;;;;;;;5.55;2.53;;;;;;;;;;6241314;28;20505;-67
2024/01/24 07:39:54;;;;;;;5.53;2.42;;;;;;;;;;6240101;28;20088;-66
2024/01/24 07:42:55;;;;;;;5.40;2.35;;;;;;;;;;6240331;28;20053;-66
2024/01/24 07:45:56;;;;;;;5.55;2.70;;;;;;;;;;6241498;28;20061;-67
2024/01/24 07:48:56;;;;;;;4.50;2.33;;;;;;;;;;6240804;28;20049;-67
2024/01/24 07:51:57;;;;;;;4.85;2.10;;;;;;;;;;6238638;28;20057;-66
2024/01/24 07:54:58;;;;;;;4.53;2.05;;;;;;;;;;6240409;28;20053;-67
2024/01/24 07:57:59;;;;;;;5.47;2.10;;;;;;;;;;6241292;28;20616;-67
2024/01/24 08:01:00;;;;;;;4.70;2.50;;;;;;;;;;6233730;28;20045;-67
2024/01/24 08:04:00;;;;;;;4.82;2.00;;;;;;;;;;6238857;28;20045;-67
2024/01/24 08:07:01;;;;;;;5.25;2.13;;;;;;;;;;6240528;28;20041;-67
2024/01/24 08:10:02;;;;;;;4.25;2.15;;;;;;;;;;6237867;28;20053;-67
2024/01/24 08:13:03;;;;;;;5.03;2.20;;;;;;;;;;6240174;28;20566;-67
2024/01/24 08:16:04;;;;;;;4.30;2.30;;;;;;;;;;6240383;28;20045;-67
2024/01/24 08:19:05;;;;;;;4.20;2.08;;;;;;;;;;6239363;28;20045;-67
2024/01/24 08:22:06;;;;;;;6.43;2.70;;;;;;;;;;6240829;28;20915;-67
2024/01/24 08:25:07;;;;;;;4.57;2.08;;;;;;;;;;6240917;28;20500;-67
2024/01/24 08:28:08;;;;;;;5.28;2.53;;;;;;;;;;6240244;28;20057;-67
2024/01/24 08:31:10;;;;;;;4.50;2.40;;;;;;;;;;6237948;28;20045;-68
2024/01/24 08:34:11;;;;;;;4.40;2.60;;;;;;;;;;6240369;28;20448;-67
2024/01/24 08:37:14;;;;;;;5.35;2.70;;;;;;;;;;6240849;28;20049;-67
2024/01/24 08:40:17;;;;;;;5.50;2.63;;;;;;;;;;6235720;28;20061;-67
2024/01/24 08:43:17;;;;;;;5.18;2.80;;;;;;;;;;6237910;28;20409;-67
2024/01/24 08:46:19;;;;;;;4.90;3.05;;;;;;;;;;6240550;28;20033;-67
2024/01/24 08:49:19;;;;;;;4.90;2.90;;;;;;;;;;6239163;28;20415;-67
2024/01/24 08:52:20;;;;;;;4.13;2.55;;;;;;;;;;6239765;28;20385;-68
2024/01/24 08:55:21;;;;;;;6.00;2.50;;;;;;;;;;6240098;28;20077;-66
2024/01/24 08:58:22;;;;;;;4.63;2.50;;;;;;;;;;6240024;28;20045;-66
2024/01/24 09:01:23;;;;;;;4.50;2.30;;;;;;;;;;6239096;28;20477;-67
2024/01/24 09:04:24;;;;;;;4.88;2.08;;;;;;;;;;6239464;28;20050;-66
2024/01/24 09:07:24;;;;;;;4.90;2.13;;;;;;;;;;6240068;28;20094;-67
2024/01/24 09:10:25;;;;;;;4.53;2.00;;;;;;;;;;6238543;28;20061;-67
2024/01/24 09:13:26;;;;;;;3.78;1.90;;;;;;;;;;6238787;28;20046;-67
2024/01/24 09:16:26;;;;;;;3.50;1.83;;;;;;;;;;6239374;28;20060;-66
2024/01/24 09:19:27;;;;;;;3.85;1.63;;;;;;;;;;6237711;28;20046;-67
2024/01/24 09:22:28;;;;;;;3.72;1.73;;;;;;;;;;6239068;28;20042;-67
2024/01/24 09:25:30;;;;;;;3.30;1.63;;;;;;;;;;6237391;28;20127;-67
2024/01/24 09:28:31;;;;;;;3.90;1.70;;;;;;;;;;6239776;28;20068;-67
2024/01/24 09:31:32;;;;;;;3.20;1.70;;;;;;;;;;6237096;28;20042;-67
2024/01/24 09:34:32;;;;;;;6.45;4.20;;;;;;;;;;6238384;28;20052;-68
2024/01/24 09:37:33;;;;;;;6.90;5.03;;;;;;;;;;6238923;28;20052;-67
2024/01/24 09:40:34;;;;;;;7.30;4.32;;;;;;;;;;6236653;28;20045;-67
2024/01/24 09:43:38;;;;;;;5.75;3.90;;;;;;;;;;6237633;28;20100;-67
2024/01/24 09:46:42;;;;;;;4.43;2.10;;;;;;;;;;6239152;28;20504;-67
2024/01/24 09:49:43;;;;;;;6.07;2.35;;;;;;;;;;6238209;28;20068;-67
2024/01/24 09:52:45;;;;;;;3.95;1.60;;;;;;;;;;6238968;28;20103;-66
2024/01/24 09:55:47;;;;;;;3.28;2.10;;;;;;;;;;6239076;28;20107;-67
2024/01/24 09:58:50;;;;;;;12.57;4.95;;;;;;;;;;6239368;28;20054;-67
2024/01/24 10:01:51;;;;;;;9.43;5.28;;;;;;;;;;6231716;28;20037;-67
2024/01/24 10:04:52;;;;;;;6.40;3.17;;;;;;;;;;6232348;28;20107;-67
2024/01/24 10:07:54;;;;;;;5.20;2.58;;;;;;;;;;6220005;28;20555;-67
2024/01/24 10:10:54;;;;;;;5.23;2.30;;;;;;;;;;6228830;28;20057;-67
2024/01/24 10:13:58;;;;;;;6.68;2.30;;;;;;;;;;6227283;28;20800;-67
2024/01/24 10:17:00;;;;;;;6.40;2.53;;;;;;;;;;6226618;28;20429;-67
2024/01/24 10:20:00;;;;;;;5.28;2.58;;;;;;;;;;6230422;28;20071;-68
2024/01/24 10:23:01;;;;;;;5.25;2.28;;;;;;;;;;6230927;28;20060;-68
2024/01/24 10:26:02;;;;;;;7.22;2.33;;;;;;;;;;6229619;28;20568;-67
2024/01/24 10:29:03;;;;;;;4.10;2.25;;;;;;;;;;6230652;28;20143;-67
2024/01/24 10:32:09;;;;;;;3.70;2.00;;;;;;;;;;6230874;28;20954;-67
2024/01/24 10:35:10;;;;;;;5.03;2.17;;;;;;;;;;6233342;28;20053;-68
2024/01/24 10:38:11;;;;;;;4.15;2.20;;;;;;;;;;6231882;28;20060;-67
2024/01/24 10:41:17;;;;;;;5.95;2.70;;;;;;;;;;6229440;28;20052;-67
2024/01/24 10:44:21;;;;;;;4.95;2.42;;;;;;;;;;6233464;28;20526;-67
2024/01/24 10:47:22;;;;;;;5.85;2.72;;;;;;;;;;6229794;28;20500;-67
2024/01/24 10:50:24;;;;;;;6.28;2.90;;;;;;;;;;6231155;28;20049;-67
2024/01/24 10:53:28;;;;;;;5.72;2.60;;;;;;;;;;6230395;28;20132;-67
2024/01/24 10:56:29;;;;;;;6.55;3.35;;;;;;;;;;6234696;28;20057;-67
2024/01/24 10:59:31;;;;;;;9.45;4.22;;;;;;;;;;6230898;28;20056;-67
2024/01/24 11:02:32;;;;;;;8.73;3.67;;;;;;;;;;6230879;28;20049;-67
2024/01/24 11:05:45;;;;;;;9.70;3.20;;;;;;;;;;6231456;28;20211;-67
2024/01/24 11:08:51;;;;;;;6.80;3.55;;;;;;;;;;6232841;28;20057;-67
2024/01/24 11:11:56;;;;;;;6.43;3.30;;;;;;;;;;6234877;28;20476;-67
2024/01/24 11:15:05;;;;;;;5.82;2.70;;;;;;;;;;6230223;28;20057;-68
2024/01/24 11:18:24;;;;;;;5.75;2.88;;;;;;;;;;6231616;28;20067;-67
2024/01/24 11:21:28;;;;;;;6.25;3.00;;;;;;;;;;6232142;28;20065;-67
2024/01/24 11:24:40;;;;;;;6.43;2.97;;;;;;;;;;6230283;28;20108;-67
2024/01/24 11:27:43;;;;;;;7.30;3.08;;;;;;;;;;6225174;28;20062;-67
2024/01/24 11:30:46;;;;;;;7.53;2.72;;;;;;;;;;6232415;28;20799;-68
2024/01/24 11:34:06;;;;;;;7.15;3.20;;;;;;;;;;6233589;28;20167;-67
2024/01/24 11:37:07;;;;;;;6.88;3.10;;;;;;;;;;6229231;28;20990;-68
2024/01/24 11:40:08;;;;;;;8.07;3.20;;;;;;;;;;6229503;28;20527;-67
2024/01/24 11:43:22;;;;;;;5.65;2.85;;;;;;;;;;6230739;28;20757;-68
2024/01/24 11:46:22;;;;;;;7.10;3.22;;;;;;;;;;6229846;28;20061;-68
2024/01/24 11:49:25;;;;;;;6.03;2.90;;;;;;;;;;6226956;28;20045;-68
2024/01/24 11:52:26;;;;;;;6.05;2.47;;;;;;;;;;6231053;28;20180;-68
2024/01/24 11:55:28;;;;;;;5.97;2.53;;;;;;;;;;6229696;28;20041;-68
2024/01/24 11:58:29;;;;;;;7.22;2.75;;;;;;;;;;6225816;28;20130;-68
2024/01/24 12:01:30;;;;;;;4.33;2.13;;;;;;;;;;6233953;28;20061;-68
2024/01/24 12:04:30;;;;;;;5.28;2.38;;;;;;;;;;6230245;28;20266;-68
2024/01/24 12:07:31;;;;;;;6.80;2.83;;;;;;;;;;6225280;28;20615;-68
2024/01/24 12:10:32;;;;;;;5.75;2.20;;;;;;;;;;6232479;28;20045;-68
2024/01/24 12:13:33;;;;;;;5.13;2.35;;;;;;;;;;6231687;28;20377;-68
2024/01/24 12:16:34;;;;;;;5.10;2.22;;;;;;;;;;6227522;28;20488;-68
2024/01/24 12:19:35;;;;;;;7.13;2.58;;;;;;;;;;6226688;28;20045;-68
2024/01/24 12:22:36;;;;;;;4.73;2.33;;;;;;;;;;6230255;28;20476;-68
2024/01/24 12:25:37;;;;;;;7.32;2.40;;;;;;;;;;6227894;28;20359;-68
2024/01/24 12:28:38;;;;;;;6.13;2.20;;;;;;;;;;6223200;28;20061;-68
2024/01/24 12:31:41;;;;;;;4.47;2.42;;;;;;;;;;6228771;28;20058;-68
2024/01/24 12:34:48;;;;;;;5.80;2.55;;;;;;;;;;6231209;28;20459;-68
2024/01/24 12:37:48;;;;;;;7.03;2.45;;;;;;;;;;6226741;28;20054;-68
2024/01/24 12:40:54;;;;;;;6.78;2.30;;;;;;;;;;6230332;28;20487;-68
2024/01/24 12:43:56;;;;;;;6.65;2.60;;;;;;;;;;6231176;28;20064;-68
2024/01/24 12:46:58;;;;;;;7.90;2.83;;;;;;;;;;6225931;28;20534;-68
2024/01/24 12:49:59;;;;;;;;;;;;;;;;;;6225236;28;20417;-68
2024/01/24 12:52:59;;;;;;;6.80;2.80;;;;;;;;;;6230087;28;19929;-68
2024/01/24 12:56:00;;;;;;;7.28;3.10;;;;;;;;;;6228937;28;20065;-68
2024/01/24 12:59:01;;;;;;;7.07;3.00;;;;;;;;;;6240065;28;20053;-68
2024/01/24 13:02:03;;;;;;;9.77;3.15;;;;;;;;;;6227908;28;20134;-68
2024/01/24 13:05:04;;;;;;;7.47;3.50;;;;;;;;;;6228617;28;20230;-68
2024/01/24 13:08:07;;;;;;;11.40;3.72;;;;;;;;;;6224508;28;20107;-67
2024/01/24 13:11:07;;;;;;;;;;;;;;;;;;6227606;28;20140;-67
2024/01/24 13:14:08;;;;;;;9.93;3.67;;;;;;;;;;6229978;28;20687;-67
2024/01/24 13:17:10;;;;;;;9.25;3.70;;;;;;;;;;6229432;28;20053;-67
2024/01/24 13:20:11;;;;;;;8.93;3.90;;;;;;;;;;6226972;28;20091;-67
2024/01/24 13:23:11;;;;;;;10.82;4.10;;;;;;;;;;6229915;28;20421;-68
2024/01/24 13:26:13;;;;;;;11.73;3.85;;;;;;;;;;6229538;28;20073;-68
2024/01/24 13:29:14;;;;;;;11.55;4.30;;;;;;;;;;6225912;28;20599;-67
2024/01/24 13:32:16;;;;;;;9.30;3.83;;;;;;;;;;6230817;28;20080;-68
2024/01/24 13:35:17;;;;;;;11.45;4.65;;;;;;;;;;6229269;28;20063;-68
2024/01/24 13:38:19;;;;;;;10.18;4.32;;;;;;;;;;6223681;28;20053;-67
2024/01/24 13:41:23;;;;;;;11.50;4.82;;;;;;;;;;6230662;28;20041;-68
2024/01/24 13:44:24;;;;;;;11.20;4.80;;;;;;;;;;6229327;28;20571;-67
2024/01/24 13:47:26;;;;;;;12.63;4.97;;;;;;;;;;6228020;28;20057;-67
2024/01/24 13:50:27;;;;;;;15.88;5.28;;;;;;;;;;6226919;28;20041;-68
2024/01/24 13:53:27;;;;;;;10.82;4.85;;;;;;;;;;6233474;28;20075;-67
2024/01/24 13:56:28;;;;;;;19.52;5.60;;;;;;;;;;6232470;28;20053;-68
2024/01/24 13:59:29;;;;;;;12.32;5.53;;;;;;;;;;6225604;28;20413;-67
2024/01/24 14:02:30;;;;;;;14.60;6.18;;;;;;;;;;6232782;28;20053;-67
2024/01/24 14:05:30;;;;;;;25.13;8.52;;;;;;;;;;6234958;28;20800;-67
2024/01/24 14:08:31;;;;;;;24.13;8.90;;;;;;;;;;6229740;28;21255;-68
2024/01/24 14:11:32;;;;;;;16.90;6.97;;;;;;;;;;6234156;28;20053;-67
2024/01/24 14:14:34;;;;;;;14.82;5.28;;;;;;;;;;6234313;28;20045;-67
2024/01/24 14:17:35;;;;;;;15.30;4.60;;;;;;;;;;6228240;28;20053;-68
2024/01/24 14:20:36;;;;;;;15.52;5.00;;;;;;;;;;6231804;28;20720;-67
2024/01/24 14:23:40;;;;;;;11.70;3.97;;;;;;;;;;6234441;28;20064;-67
2024/01/24 14:26:41;;;;;;;10.95;3.55;;;;;;;;;;6233210;28;20459;-67
2024/01/24 14:29:42;;;;;;;14.10;3.80;;;;;;;;;;6224074;28;20073;-67
2024/01/24 14:32:43;;;;;;;18.17;3.40;;;;;;;;;;6232899;28;20053;-69
2024/01/24 14:35:43;;;;;;;9.57;3.47;;;;;;;;;;6234646;28;20041;-67
2024/01/24 14:38:44;;;;;;;10.82;2.92;;;;;;;;;;6227178;28;20075;-67
2024/01/24 14:41:44;;;;;;;14.60;3.00;;;;;;;;;;6231517;28;20064;-68
2024/01/24 14:44:46;;;;;;;9.45;3.38;;;;;;;;;;6233319;28;20095;-68
2024/01/24 14:47:48;;;;;;;9.43;2.50;;;;;;;;;;6228273;28;20098;-68
2024/01/24 14:50:48;;;;;;;16.58;3.70;;;;;;;;;;6229651;28;20052;-67
2024/01/24 14:53:50;;;;;;;16.55;3.65;;;;;;;;;;6232759;28;20571;-67
2024/01/24 14:56:51;;;;;;;14.07;3.97;;;;;;;;;;6231239;28;20153;-68
2024/01/24 14:59:52;;;;;;;24.13;4.35;;;;;;;;;;6226313;28;20077;-69
2024/01/24 15:02:53;;;;;;;16.67;3.75;;;;;;;;;;6232102;28;20042;-68
2024/01/24 15:05:53;;;;;;;16.77;3.88;;;;;;;;;;6229483;28;20104;-69
2024/01/24 15:08:55;;;;;;;14.05;3.78;;;;;;;;;;6225745;28;20061;-69
2024/01/24 15:11:56;;;;;;;15.23;4.53;;;;;;;;;;6232957;28;20053;-68
2024/01/24 15:14:57;;;;;;;22.58;4.03;;;;;;;;;;6231549;28;20053;-68
2024/01/24 15:17:58;;;;;;;17.45;4.85;;;;;;;;;;6225546;28;20057;-68
2024/01/24 15:20:58;;;;;;;21.80;4.25;;;;;;;;;;6232059;28;20057;-68
2024/01/24 15:24:01;;;;;;;22.40;3.70;;;;;;;;;;6231764;28;20041;-68
2024/01/24 15:27:02;;;;;;;16.10;4.05;;;;;;;;;;6234057;28;20092;-68
2024/01/24 15:30:02;;;;;;;18.45;4.43;;;;;;;;;;6224712;28;20053;-68
2024/01/24 15:33:04;;;;;;;19.92;4.30;;;;;;;;;;6230843;28;20065;-69
2024/01/24 15:36:04;;;;;;;19.00;5.07;;;;;;;;;;6234425;28;20361;-68
2024/01/24 15:39:11;;;;;;;18.15;4.03;;;;;;;;;;6225862;28;20049;-68
2024/01/24 15:42:14;;;;;;;21.63;4.10;;;;;;;;;;6231065;28;20063;-68
2024/01/24 15:45:15;;;;;;;16.33;3.80;;;;;;;;;;6231935;28;20053;-68
2024/01/24 15:48:16;;;;;;;21.77;4.40;;;;;;;;;;6226367;28;20302;-68
2024/01/24 15:51:17;;;;;;;25.38;5.13;;;;;;;;;;6231243;28;20061;-68
2024/01/24 15:54:18;;;;;;;25.77;6.68;;;;;;;;;;6230775;28;20064;-68
2024/01/24 15:57:19;;;;;;;17.38;4.90;;;;;;;;;;6226512;28;20049;-69
2024/01/24 16:00:19;;;;;;;17.27;4.93;;;;;;;;;;6227623;28;20071;-68
2024/01/24 16:03:24;;;;;;;23.05;4.30;;;;;;;;;;6227272;28;20057;-68
2024/01/24 16:06:24;;;;;;;17.20;5.18;;;;;;;;;;6231987;28;20079;-68
2024/01/24 16:09:25;;;;;;;18.27;5.07;;;;;;;;;;6225415;28;20053;-69
2024/01/24 16:12:26;;;;;;;20.83;5.32;;;;;;;;;;6231907;28;20049;-68
2024/01/24 16:15:26;;;;;;;23.33;6.75;;;;;;;;;;6228784;28;20045;-68
2024/01/24 16:18:29;;;;;;;28.42;9.20;;;;;;;;;;6228043;28;20531;-69
2024/01/24 16:21:30;;;;;;;28.58;9.25;;;;;;;;;;6231665;28;20570;-69
2024/01/24 16:24:31;;;;;;;32.85;10.65;;;;;;;;;;6232788;28;20041;-68
2024/01/24 16:27:36;;;;;;;37.08;12.07;;;;;;;;;;6222959;28;20065;-69
2024/01/24 16:30:37;;;;;;;43.40;13.13;;;;;;;;;;6228255;28;20050;-68
2024/01/24 16:33:39;;;;;;;38.35;13.00;;;;;;;;;;6229528;28;20534;-67
2024/01/24 16:36:39;;;;;;;44.47;14.93;;;;;;;;;;6230782;28;20076;-68
2024/01/24 16:39:41;;;;;;;57.17;14.80;;;;;;;;;;6221731;28;20056;-68
2024/01/24 16:42:41;;;;;;;53.17;16.50;;;;;;;;;;6232080;28;20052;-68
2024/01/24 16:45:42;;;;;;;54.05;17.40;;;;;;;;;;6230562;28;20053;-68
2024/01/24 16:48:43;;;;;;;50.67;17.60;;;;;;;;;;6225280;28;20050;-69
2024/01/24 16:51:44;;;;;;;53.08;18.05;;;;;;;;;;6227343;28;20045;-68
2024/01/24 16:54:44;;;;;;;51.67;16.88;;;;;;;;;;6229827;28;20432;-69
2024/01/24 16:57:45;;;;;;;54.20;18.02;;;;;;;;;;6225857;28;20049;-69
2024/01/24 17:00:46;;;;;;;56.40;18.08;;;;;;;;;;6227072;28;20503;-69
2024/01/24 17:03:49;;;;;;;59.53;18.65;;;;;;;;;;6228865;28;20667;-69
2024/01/24 17:06:51;;;;;;;51.15;17.20;;;;;;;;;;6229608;28;20473;-68
2024/01/24 17:09:51;;;;;;;;;;;;;;;;;;6224737;28;20045;-69
2024/01/24 17:12:52;;;;;;;50.75;16.50;;;;;;;;;;6232120;28;19979;-69
2024/01/24 17:15:53;;;;;;;54.78;15.98;;;;;;;;;;6230314;28;20503;-69
2024/01/24 17:18:53;;;;;;;57.65;17.17;;;;;;;;;;6225675;28;20057;-69
2024/01/24 17:21:54;;;;;;;58.08;17.35;;;;;;;;;;6227310;28;20123;-69
2024/01/24 17:24:55;;;;;;;52.42;17.50;;;;;;;;;;6227554;28;20057;-69
2024/01/24 17:27:56;;;;;;;56.20;17.27;;;;;;;;;;6222984;28;20061;-69
2024/01/24 17:30:57;;;;;;;54.13;17.90;;;;;;;;;;6229723;28;20473;-68
2024/01/24 17:33:57;;;;;;;58.85;16.23;;;;;;;;;;6228538;28;20056;-68
2024/01/24 17:36:59;;;;;;;46.70;12.25;;;;;;;;;;6227479;28;20099;-68
2024/01/24 17:40:00;;;;;;;35.88;10.05;;;;;;;;;;6222267;28;20057;-68
2024/01/24 17:43:01;;;;;;;31.60;8.35;;;;;;;;;;6228026;28;20077;-60
2024/01/24 17:46:02;;;;;;;36.75;8.50;;;;;;;;;;6228972;28;20409;-67
2024/01/24 17:49:02;;;;;;;32.88;7.93;;;;;;;;;;6223115;28;20060;-66
2024/01/24 17:52:03;;;;;;;24.35;7.93;;;;;;;;;;6227542;28;20061;-66
2024/01/24 17:55:05;;;;;;;26.45;6.45;;;;;;;;;;6226699;28;20079;-66
2024/01/24 17:58:06;;;;;;;23.27;6.82;;;;;;;;;;6222329;28;20049;-67
2024/01/24 18:01:07;;;;;;;22.05;4.88;;;;;;;;;;6226812;28;20053;-66